sensor_id;sensor_type;location;lat;lon;timestamp;P1;durP1;ratioP1;P2;durP2;ratioP2
71856;SDS011;63344;46.980;28.882;2023-04-03T00:01:17;8.10;;;4.85;;
71856;SDS011;63344;46.980;28.882;2023-04-03T00:03:45;6.78;;;4.32;;
71856;SDS011;63344;46.980;28.882;2023-04-03T00:06:12;6.22;;;3.97;;
71856;SDS011;63344;46.980;28.882;2023-04-03T00:08:40;7.30;;;4.13;;
71856;SDS011;63344;46.980;28.882;2023-04-03T00:11:07;7.07;;;3.92;;
71856;SDS011;63344;46.980;28.882;2023-04-03T00:13:35;5.57;;;3.75;;
71856;SDS011;63344;46.980;28.882;2023-04-03T00:16:03;6.80;;;4.60;;
71856;SDS011;63344;46.980;28.882;2023-04-03T00:18:31;5.53;;;3.47;;
71856;SDS011;63344;46.980;28.882;2023-04-03T00:20:59;7.30;;;3.80;;
71856;SDS011;63344;46.980;28.882;2023-04-03T00:23:26;6.50;;;3.85;;
71856;SDS011;63344;46.980;28.882;2023-04-03T00:25:53;7.88;;;4.57;;
71856;SDS011;63344;46.980;28.882;2023-04-03T00:28:21;6.07;;;3.53;;
71856;SDS011;63344;46.980;28.882;2023-04-03T00:30:48;6.60;;;4.18;;
71856;SDS011;63344;46.980;28.882;2023-04-03T00:33:17;6.07;;;3.25;;
71856;SDS011;63344;46.980;28.882;2023-04-03T00:35:48;9.15;;;4.20;;
71856;SDS011;63344;46.980;28.882;2023-04-03T00:38:16;6.57;;;3.47;;
71856;SDS011;63344;46.980;28.882;2023-04-03T00:40:45;4.07;;;2.40;;
71856;SDS011;63344;46.980;28.882;2023-04-03T00:43:15;4.93;;;2.78;;
71856;SDS011;63344;46.980;28.882;2023-04-03T00:45:49;3.40;;;2.08;;
71856;SDS011;63344;46.980;28.882;2023-04-03T00:48:19;4.25;;;2.35;;
71856;SDS011;63344;46.980;28.882;2023-04-03T00:50:49;3.00;;;2.20;;
71856;SDS011;63344;46.980;28.882;2023-04-03T00:53:18;4.43;;;2.65;;
71856;SDS011;63344;46.980;28.882;2023-04-03T00:55:52;5.22;;;2.08;;
71856;SDS011;63344;46.980;28.882;2023-04-03T00:58:25;4.47;;;2.17;;
71856;SDS011;63344;46.980;28.882;2023-04-03T01:01:15;3.05;;;1.58;;
71856;SDS011;63344;46.980;28.882;2023-04-03T01:03:46;3.42;;;2.00;;
71856;SDS011;63344;46.980;28.882;2023-04-03T01:06:14;3.92;;;1.85;;
71856;SDS011;63344;46.980;28.882;2023-04-03T01:08:43;4.28;;;2.45;;
71856;SDS011;63344;46.980;28.882;2023-04-03T01:11:11;5.05;;;2.75;;
71856;SDS011;63344;46.980;28.882;2023-04-03T01:13:39;3.60;;;2.25;;
71856;SDS011;63344;46.980;28.882;2023-04-03T01:16:07;4.68;;;2.88;;
71856;SDS011;63344;46.980;28.882;2023-04-03T01:18:36;4.22;;;2.30;;
71856;SDS011;63344;46.980;28.882;2023-04-03T01:29:08;2.70;;;1.70;;
71856;SDS011;63344;46.980;28.882;2023-04-03T01:34:12;3.65;;;1.95;;
71856;SDS011;63344;46.980;28.882;2023-04-03T01:36:39;4.50;;;2.20;;
71856;SDS011;63344;46.980;28.882;2023-04-03T01:39:06;6.00;;;3.17;;
71856;SDS011;63344;46.980;28.882;2023-04-03T01:44:02;5.18;;;2.55;;
71856;SDS011;63344;46.980;28.882;2023-04-03T01:46:30;4.60;;;2.83;;
71856;SDS011;63344;46.980;28.882;2023-04-03T01:48:58;4.40;;;2.33;;
71856;SDS011;63344;46.980;28.882;2023-04-03T01:51:25;3.63;;;2.13;;
71856;SDS011;63344;46.980;28.882;2023-04-03T01:53:53;2.53;;;1.52;;
71856;SDS011;63344;46.980;28.882;2023-04-03T01:56:21;4.47;;;2.80;;
71856;SDS011;63344;46.980;28.882;2023-04-03T01:58:49;4.78;;;2.67;;
71856;SDS011;63344;46.980;28.882;2023-04-03T02:03:45;3.15;;;1.80;;
71856;SDS011;63344;46.980;28.882;2023-04-03T02:06:13;3.92;;;2.38;;
71856;SDS011;63344;46.980;28.882;2023-04-03T02:08:40;3.65;;;2.13;;
71856;SDS011;63344;46.980;28.882;2023-04-03T02:11:08;2.83;;;1.48;;
71856;SDS011;63344;46.980;28.882;2023-04-03T02:13:35;3.45;;;2.00;;
71856;SDS011;63344;46.980;28.882;2023-04-03T02:16:07;3.38;;;1.90;;
71856;SDS011;63344;46.980;28.882;2023-04-03T02:18:36;2.88;;;1.73;;
71856;SDS011;63344;46.980;28.882;2023-04-03T02:21:04;3.13;;;1.67;;
71856;SDS011;63344;46.980;28.882;2023-04-03T02:23:31;5.22;;;2.45;;
71856;SDS011;63344;46.980;28.882;2023-04-03T02:26:10;4.20;;;1.85;;
71856;SDS011;63344;46.980;28.882;2023-04-03T02:28:39;3.97;;;1.90;;
71856;SDS011;63344;46.980;28.882;2023-04-03T02:33:35;3.83;;;2.03;;
71856;SDS011;63344;46.980;28.882;2023-04-03T02:36:04;3.00;;;1.88;;
71856;SDS011;63344;46.980;28.882;2023-04-03T02:38:33;3.40;;;2.15;;
71856;SDS011;63344;46.980;28.882;2023-04-03T02:41:02;4.53;;;2.50;;
71856;SDS011;63344;46.980;28.882;2023-04-03T02:43:31;3.40;;;2.00;;
71856;SDS011;63344;46.980;28.882;2023-04-03T02:45:59;5.47;;;2.60;;
71856;SDS011;63344;46.980;28.882;2023-04-03T02:48:26;4.45;;;2.05;;
71856;SDS011;63344;46.980;28.882;2023-04-03T02:50:55;3.15;;;1.73;;
71856;SDS011;63344;46.980;28.882;2023-04-03T02:53:22;4.07;;;1.65;;
71856;SDS011;63344;46.980;28.882;2023-04-03T02:55:50;4.00;;;2.25;;
71856;SDS011;63344;46.980;28.882;2023-04-03T02:58:17;3.58;;;2.00;;
71856;SDS011;63344;46.980;28.882;2023-04-03T03:00:44;4.43;;;2.40;;
71856;SDS011;63344;46.980;28.882;2023-04-03T03:03:11;4.15;;;2.58;;
71856;SDS011;63344;46.980;28.882;2023-04-03T03:05:40;3.85;;;1.98;;
71856;SDS011;63344;46.980;28.882;2023-04-03T03:08:07;4.10;;;2.25;;
71856;SDS011;63344;46.980;28.882;2023-04-03T03:10:36;9.48;;;2.88;;
71856;SDS011;63344;46.980;28.882;2023-04-03T03:13:03;4.25;;;1.90;;
71856;SDS011;63344;46.980;28.882;2023-04-03T03:15:31;4.05;;;2.30;;
71856;SDS011;63344;46.980;28.882;2023-04-03T03:17:58;4.47;;;2.50;;
71856;SDS011;63344;46.980;28.882;2023-04-03T03:20:26;5.13;;;2.03;;
71856;SDS011;63344;46.980;28.882;2023-04-03T03:22:53;3.17;;;1.58;;
71856;SDS011;63344;46.980;28.882;2023-04-03T03:25:21;3.10;;;1.33;;
71856;SDS011;63344;46.980;28.882;2023-04-03T03:27:49;3.17;;;1.55;;
71856;SDS011;63344;46.980;28.882;2023-04-03T03:30:16;3.70;;;2.08;;
71856;SDS011;63344;46.980;28.882;2023-04-03T03:32:43;3.92;;;2.22;;
71856;SDS011;63344;46.980;28.882;2023-04-03T03:35:11;2.97;;;1.80;;
71856;SDS011;63344;46.980;28.882;2023-04-03T03:37:38;3.95;;;1.58;;
71856;SDS011;63344;46.980;28.882;2023-04-03T03:40:06;5.45;;;2.22;;
71856;SDS011;63344;46.980;28.882;2023-04-03T03:42:33;2.92;;;1.90;;
71856;SDS011;63344;46.980;28.882;2023-04-03T03:45:01;4.65;;;2.17;;
71856;SDS011;63344;46.980;28.882;2023-04-03T03:47:28;6.57;;;3.33;;
71856;SDS011;63344;46.980;28.882;2023-04-03T03:49:55;3.85;;;1.95;;
71856;SDS011;63344;46.980;28.882;2023-04-03T03:52:22;2.85;;;1.60;;
71856;SDS011;63344;46.980;28.882;2023-04-03T03:54:50;4.05;;;1.92;;
71856;SDS011;63344;46.980;28.882;2023-04-03T03:57:17;4.38;;;2.50;;
71856;SDS011;63344;46.980;28.882;2023-04-03T03:59:44;4.28;;;1.88;;
71856;SDS011;63344;46.980;28.882;2023-04-03T04:02:11;3.85;;;2.17;;
71856;SDS011;63344;46.980;28.882;2023-04-03T04:04:39;3.17;;;1.73;;
71856;SDS011;63344;46.980;28.882;2023-04-03T04:07:07;4.22;;;2.35;;
71856;SDS011;63344;46.980;28.882;2023-04-03T04:09:34;4.72;;;2.33;;
71856;SDS011;63344;46.980;28.882;2023-04-03T04:12:02;4.28;;;2.03;;
71856;SDS011;63344;46.980;28.882;2023-04-03T04:14:32;4.70;;;2.15;;
71856;SDS011;63344;46.980;28.882;2023-04-03T04:16:59;8.43;;;2.95;;
71856;SDS011;63344;46.980;28.882;2023-04-03T04:19:30;6.63;;;2.67;;
71856;SDS011;63344;46.980;28.882;2023-04-03T04:22:00;5.25;;;2.58;;
71856;SDS011;63344;46.980;28.882;2023-04-03T04:24:27;4.07;;;1.85;;
71856;SDS011;63344;46.980;28.882;2023-04-03T04:26:55;4.50;;;2.10;;
71856;SDS011;63344;46.980;28.882;2023-04-03T04:29:23;43.15;;;13.05;;
71856;SDS011;63344;46.980;28.882;2023-04-03T04:31:50;14.65;;;5.75;;
71856;SDS011;63344;46.980;28.882;2023-04-03T04:34:20;7.82;;;3.70;;
71856;SDS011;63344;46.980;28.882;2023-04-03T04:36:49;9.95;;;4.53;;
71856;SDS011;63344;46.980;28.882;2023-04-03T04:41:46;6.60;;;3.67;;
71856;SDS011;63344;46.980;28.882;2023-04-03T04:44:13;6.80;;;3.28;;
71856;SDS011;63344;46.980;28.882;2023-04-03T04:47:00;6.18;;;3.35;;
71856;SDS011;63344;46.980;28.882;2023-04-03T04:53:19;10.02;;;3.33;;
71856;SDS011;63344;46.980;28.882;2023-04-03T04:56:14;8.02;;;3.70;;
71856;SDS011;63344;46.980;28.882;2023-04-03T04:59:22;5.85;;;2.78;;
71856;SDS011;63344;46.980;28.882;2023-04-03T05:02:18;5.55;;;3.10;;
71856;SDS011;63344;46.980;28.882;2023-04-03T05:04:46;5.07;;;2.97;;
71856;SDS011;63344;46.980;28.882;2023-04-03T05:07:13;6.63;;;3.33;;
71856;SDS011;63344;46.980;28.882;2023-04-03T05:10:06;6.75;;;4.07;;
71856;SDS011;63344;46.980;28.882;2023-04-03T05:13:09;5.40;;;3.25;;
71856;SDS011;63344;46.980;28.882;2023-04-03T05:16:00;5.40;;;2.78;;
71856;SDS011;63344;46.980;28.882;2023-04-03T05:23:18;7.40;;;3.47;;
71856;SDS011;63344;46.980;28.882;2023-04-03T05:25:45;9.00;;;4.47;;
71856;SDS011;63344;46.980;28.882;2023-04-03T05:28:13;8.77;;;4.38;;
71856;SDS011;63344;46.980;28.882;2023-04-03T05:30:41;11.60;;;7.15;;
71856;SDS011;63344;46.980;28.882;2023-04-03T05:33:08;18.23;;;9.60;;
71856;SDS011;63344;46.980;28.882;2023-04-03T05:35:36;9.68;;;5.03;;
71856;SDS011;63344;46.980;28.882;2023-04-03T05:38:09;7.20;;;4.28;;
71856;SDS011;63344;46.980;28.882;2023-04-03T05:40:36;6.88;;;4.05;;
71856;SDS011;63344;46.980;28.882;2023-04-03T05:43:04;7.55;;;3.20;;
71856;SDS011;63344;46.980;28.882;2023-04-03T05:45:33;5.40;;;2.60;;
71856;SDS011;63344;46.980;28.882;2023-04-03T05:48:01;5.57;;;2.95;;
71856;SDS011;63344;46.980;28.882;2023-04-03T05:50:29;6.65;;;3.53;;
71856;SDS011;63344;46.980;28.882;2023-04-03T05:52:57;6.00;;;2.83;;
71856;SDS011;63344;46.980;28.882;2023-04-03T05:55:27;6.30;;;2.92;;
71856;SDS011;63344;46.980;28.882;2023-04-03T05:57:54;4.63;;;2.70;;
71856;SDS011;63344;46.980;28.882;2023-04-03T06:00:21;6.93;;;3.53;;
71856;SDS011;63344;46.980;28.882;2023-04-03T06:02:49;7.90;;;4.22;;
71856;SDS011;63344;46.980;28.882;2023-04-03T06:05:17;6.95;;;4.68;;
71856;SDS011;63344;46.980;28.882;2023-04-03T06:07:45;8.10;;;4.70;;
71856;SDS011;63344;46.980;28.882;2023-04-03T06:10:18;4.05;;;2.60;;
71856;SDS011;63344;46.980;28.882;2023-04-03T06:12:47;5.47;;;2.75;;
71856;SDS011;63344;46.980;28.882;2023-04-03T06:15:14;5.35;;;2.72;;
71856;SDS011;63344;46.980;28.882;2023-04-03T06:17:44;5.20;;;3.00;;
71856;SDS011;63344;46.980;28.882;2023-04-03T06:20:12;5.88;;;3.55;;
71856;SDS011;63344;46.980;28.882;2023-04-03T06:22:39;9.38;;;3.20;;
71856;SDS011;63344;46.980;28.882;2023-04-03T06:25:08;5.78;;;3.38;;
71856;SDS011;63344;46.980;28.882;2023-04-03T06:27:37;7.95;;;3.20;;
71856;SDS011;63344;46.980;28.882;2023-04-03T06:30:05;5.28;;;2.85;;
71856;SDS011;63344;46.980;28.882;2023-04-03T06:32:33;4.28;;;2.60;;
71856;SDS011;63344;46.980;28.882;2023-04-03T06:35:00;5.47;;;2.72;;
71856;SDS011;63344;46.980;28.882;2023-04-03T06:37:28;5.18;;;2.53;;
71856;SDS011;63344;46.980;28.882;2023-04-03T06:39:56;4.53;;;2.80;;
71856;SDS011;63344;46.980;28.882;2023-04-03T06:42:23;7.20;;;3.55;;
71856;SDS011;63344;46.980;28.882;2023-04-03T06:44:51;6.00;;;3.10;;
71856;SDS011;63344;46.980;28.882;2023-04-03T06:47:18;6.28;;;3.30;;
71856;SDS011;63344;46.980;28.882;2023-04-03T06:49:48;5.90;;;3.00;;
71856;SDS011;63344;46.980;28.882;2023-04-03T06:52:16;5.72;;;2.67;;
71856;SDS011;63344;46.980;28.882;2023-04-03T06:54:43;6.30;;;4.25;;
71856;SDS011;63344;46.980;28.882;2023-04-03T06:57:11;5.25;;;2.58;;
71856;SDS011;63344;46.980;28.882;2023-04-03T06:59:39;4.50;;;2.60;;
71856;SDS011;63344;46.980;28.882;2023-04-03T07:02:10;2.92;;;1.63;;
71856;SDS011;63344;46.980;28.882;2023-04-03T07:04:39;4.78;;;2.65;;
71856;SDS011;63344;46.980;28.882;2023-04-03T07:07:06;3.85;;;3.00;;
71856;SDS011;63344;46.980;28.882;2023-04-03T07:09:35;6.18;;;3.17;;
71856;SDS011;63344;46.980;28.882;2023-04-03T07:12:03;3.65;;;2.00;;
71856;SDS011;63344;46.980;28.882;2023-04-03T07:14:30;4.70;;;2.15;;
71856;SDS011;63344;46.980;28.882;2023-04-03T07:16:57;3.45;;;1.83;;
71856;SDS011;63344;46.980;28.882;2023-04-03T07:19:24;5.30;;;3.00;;
71856;SDS011;63344;46.980;28.882;2023-04-03T07:21:55;4.80;;;2.42;;
71856;SDS011;63344;46.980;28.882;2023-04-03T07:24:24;4.93;;;2.22;;
71856;SDS011;63344;46.980;28.882;2023-04-03T07:26:53;3.67;;;1.90;;
71856;SDS011;63344;46.980;28.882;2023-04-03T07:29:20;4.20;;;2.58;;
71856;SDS011;63344;46.980;28.882;2023-04-03T07:31:48;3.25;;;1.92;;
71856;SDS011;63344;46.980;28.882;2023-04-03T07:34:16;4.07;;;2.13;;
71856;SDS011;63344;46.980;28.882;2023-04-03T07:36:43;4.35;;;2.28;;
71856;SDS011;63344;46.980;28.882;2023-04-03T07:39:12;3.65;;;1.58;;
71856;SDS011;63344;46.980;28.882;2023-04-03T07:41:40;4.78;;;2.35;;
71856;SDS011;63344;46.980;28.882;2023-04-03T07:44:07;3.10;;;1.58;;
71856;SDS011;63344;46.980;28.882;2023-04-03T07:46:37;9.68;;;4.10;;
71856;SDS011;63344;46.980;28.882;2023-04-03T07:49:07;6.07;;;3.40;;
71856;SDS011;63344;46.980;28.882;2023-04-03T07:51:35;7.30;;;5.88;;
71856;SDS011;63344;46.980;28.882;2023-04-03T07:54:07;5.35;;;3.67;;
71856;SDS011;63344;46.980;28.882;2023-04-03T07:56:35;5.10;;;3.25;;
71856;SDS011;63344;46.980;28.882;2023-04-03T07:59:02;5.85;;;4.28;;
71856;SDS011;63344;46.980;28.882;2023-04-03T08:01:43;3.65;;;1.88;;
71856;SDS011;63344;46.980;28.882;2023-04-03T08:04:15;7.93;;;2.53;;
71856;SDS011;63344;46.980;28.882;2023-04-03T08:09:24;4.45;;;2.80;;
71856;SDS011;63344;46.980;28.882;2023-04-03T08:11:54;3.67;;;2.00;;
71856;SDS011;63344;46.980;28.882;2023-04-03T08:14:22;2.38;;;1.48;;
71856;SDS011;63344;46.980;28.882;2023-04-03T08:16:49;3.97;;;1.95;;
71856;SDS011;63344;46.980;28.882;2023-04-03T08:19:17;2.55;;;1.38;;
71856;SDS011;63344;46.980;28.882;2023-04-03T08:24:26;2.65;;;1.65;;
71856;SDS011;63344;46.980;28.882;2023-04-03T08:27:12;2.70;;;1.88;;
71856;SDS011;63344;46.980;28.882;2023-04-03T08:29:39;5.05;;;2.15;;
71856;SDS011;63344;46.980;28.882;2023-04-03T08:32:20;3.53;;;1.67;;
71856;SDS011;63344;46.980;28.882;2023-04-03T08:34:48;3.67;;;1.52;;
71856;SDS011;63344;46.980;28.882;2023-04-03T08:37:15;3.25;;;1.65;;
71856;SDS011;63344;46.980;28.882;2023-04-03T08:39:58;2.88;;;1.83;;
71856;SDS011;63344;46.980;28.882;2023-04-03T08:47:47;2.63;;;1.55;;
71856;SDS011;63344;46.980;28.882;2023-04-03T08:50:46;3.50;;;2.15;;
71856;SDS011;63344;46.980;28.882;2023-04-03T08:53:21;4.72;;;2.50;;
71856;SDS011;63344;46.980;28.882;2023-04-03T08:55:53;3.15;;;1.83;;
71856;SDS011;63344;46.980;28.882;2023-04-03T08:58:25;2.70;;;1.50;;
71856;SDS011;63344;46.980;28.882;2023-04-03T09:01:03;2.60;;;1.48;;
71856;SDS011;63344;46.980;28.882;2023-04-03T09:03:42;4.07;;;2.13;;
71856;SDS011;63344;46.980;28.882;2023-04-03T09:06:20;3.20;;;1.88;;
71856;SDS011;63344;46.980;28.882;2023-04-03T09:14:38;3.30;;;1.85;;
71856;SDS011;63344;46.980;28.882;2023-04-03T09:23:26;2.53;;;1.55;;
71856;SDS011;63344;46.980;28.882;2023-04-03T09:26:16;2.78;;;1.40;;
71856;SDS011;63344;46.980;28.882;2023-04-03T09:28:52;3.08;;;1.73;;
71856;SDS011;63344;46.980;28.882;2023-04-03T09:31:25;3.35;;;1.52;;
71856;SDS011;63344;46.980;28.882;2023-04-03T09:33:59;2.83;;;1.48;;
71856;SDS011;63344;46.980;28.882;2023-04-03T09:39:11;3.00;;;1.80;;
71856;SDS011;63344;46.980;28.882;2023-04-03T09:42:02;3.45;;;1.63;;
71856;SDS011;63344;46.980;28.882;2023-04-03T09:44:42;4.45;;;2.08;;
71856;SDS011;63344;46.980;28.882;2023-04-03T09:47:23;5.60;;;2.03;;
71856;SDS011;63344;46.980;28.882;2023-04-03T09:52:36;2.97;;;1.55;;
71856;SDS011;63344;46.980;28.882;2023-04-03T09:55:06;4.03;;;1.80;;
71856;SDS011;63344;46.980;28.882;2023-04-03T09:57:35;2.50;;;1.38;;
71856;SDS011;63344;46.980;28.882;2023-04-03T10:00:19;4.20;;;1.63;;
71856;SDS011;63344;46.980;28.882;2023-04-03T10:02:56;2.38;;;1.42;;
71856;SDS011;63344;46.980;28.882;2023-04-03T10:05:35;2.22;;;1.42;;
71856;SDS011;63344;46.980;28.882;2023-04-03T10:10:46;2.13;;;1.42;;
71856;SDS011;63344;46.980;28.882;2023-04-03T10:13:16;3.10;;;1.42;;
71856;SDS011;63344;46.980;28.882;2023-04-03T10:15:56;3.05;;;1.92;;
71856;SDS011;63344;46.980;28.882;2023-04-03T10:18:39;2.72;;;1.63;;
71856;SDS011;63344;46.980;28.882;2023-04-03T10:29:47;2.72;;;1.33;;
71856;SDS011;63344;46.980;28.882;2023-04-03T10:33:05;2.70;;;1.63;;
71856;SDS011;63344;46.980;28.882;2023-04-03T10:35:52;3.20;;;1.73;;
71856;SDS011;63344;46.980;28.882;2023-04-03T10:52:43;4.43;;;1.27;;
71856;SDS011;63344;46.980;28.882;2023-04-03T10:57:53;1.45;;;1.00;;
71856;SDS011;63344;46.980;28.882;2023-04-03T11:00:26;2.17;;;1.40;;
71856;SDS011;63344;46.980;28.882;2023-04-03T11:03:11;1.42;;;1.17;;
71856;SDS011;63344;46.980;28.882;2023-04-03T11:05:53;1.50;;;0.93;;
71856;SDS011;63344;46.980;28.882;2023-04-03T11:08:34;1.88;;;1.17;;
71856;SDS011;63344;46.980;28.882;2023-04-03T11:11:08;2.15;;;1.08;;
71856;SDS011;63344;46.980;28.882;2023-04-03T11:13:53;2.42;;;1.40;;
71856;SDS011;63344;46.980;28.882;2023-04-03T11:16:39;4.22;;;1.55;;
71856;SDS011;63344;46.980;28.882;2023-04-03T11:19:20;2.58;;;1.48;;
71856;SDS011;63344;46.980;28.882;2023-04-03T11:22:41;3.78;;;1.38;;
71856;SDS011;63344;46.980;28.882;2023-04-03T11:30:37;0.75;;;0.70;;
71856;SDS011;63344;46.980;28.882;2023-04-03T11:33:45;2.65;;;1.02;;
71856;SDS011;63344;46.980;28.882;2023-04-03T11:36:34;3.10;;;1.55;;
71856;SDS011;63344;46.980;28.882;2023-04-03T11:39:20;4.32;;;1.02;;
71856;SDS011;63344;46.980;28.882;2023-04-03T11:41:54;1.67;;;1.35;;
71856;SDS011;63344;46.980;28.882;2023-04-03T11:44:36;1.70;;;1.10;;
71856;SDS011;63344;46.980;28.882;2023-04-03T11:47:07;2.33;;;1.08;;
71856;SDS011;63344;46.980;28.882;2023-04-03T12:08:52;2.08;;;1.48;;
71856;SDS011;63344;46.980;28.882;2023-04-03T12:11:32;3.72;;;1.35;;
71856;SDS011;63344;46.980;28.882;2023-04-03T12:14:14;3.15;;;1.10;;
71856;SDS011;63344;46.980;28.882;2023-04-03T12:16:46;1.35;;;0.80;;
71856;SDS011;63344;46.980;28.882;2023-04-03T12:26:47;1.20;;;0.90;;
71856;SDS011;63344;46.980;28.882;2023-04-03T12:32:21;2.75;;;1.40;;
71856;SDS011;63344;46.980;28.882;2023-04-03T12:46:24;2.92;;;1.05;;
71856;SDS011;63344;46.980;28.882;2023-04-03T12:49:01;1.33;;;0.85;;
71856;SDS011;63344;46.980;28.882;2023-04-03T12:51:38;1.75;;;1.20;;
71856;SDS011;63344;46.980;28.882;2023-04-03T12:59:50;4.65;;;0.90;;
71856;SDS011;63344;46.980;28.882;2023-04-03T13:04:53;4.38;;;1.00;;
71856;SDS011;63344;46.980;28.882;2023-04-03T13:07:29;1.20;;;0.47;;
71856;SDS011;63344;46.980;28.882;2023-04-03T13:10:03;2.25;;;1.02;;
71856;SDS011;63344;46.980;28.882;2023-04-03T13:12:35;1.67;;;1.30;;
71856;SDS011;63344;46.980;28.882;2023-04-03T13:15:14;2.33;;;0.90;;
71856;SDS011;63344;46.980;28.882;2023-04-03T13:17:44;1.63;;;1.00;;
71856;SDS011;63344;46.980;28.882;2023-04-03T13:20:29;5.65;;;1.42;;
71856;SDS011;63344;46.980;28.882;2023-04-03T13:23:02;3.47;;;1.20;;
71856;SDS011;63344;46.980;28.882;2023-04-03T13:25:33;1.70;;;1.52;;
71856;SDS011;63344;46.980;28.882;2023-04-03T13:28:03;2.85;;;1.35;;
71856;SDS011;63344;46.980;28.882;2023-04-03T13:30:40;3.20;;;1.70;;
71856;SDS011;63344;46.980;28.882;2023-04-03T13:33:24;2.25;;;1.30;;
71856;SDS011;63344;46.980;28.882;2023-04-03T13:35:54;3.25;;;1.50;;
71856;SDS011;63344;46.980;28.882;2023-04-03T13:38:29;4.97;;;1.92;;
71856;SDS011;63344;46.980;28.882;2023-04-03T13:41:03;3.03;;;1.40;;
71856;SDS011;63344;46.980;28.882;2023-04-03T13:43:37;2.67;;;1.35;;
71856;SDS011;63344;46.980;28.882;2023-04-03T13:49:01;3.92;;;1.80;;
71856;SDS011;63344;46.980;28.882;2023-04-03T13:51:47;1.88;;;1.10;;
71856;SDS011;63344;46.980;28.882;2023-04-03T13:54:36;1.50;;;1.38;;
71856;SDS011;63344;46.980;28.882;2023-04-03T13:57:24;3.00;;;1.58;;
71856;SDS011;63344;46.980;28.882;2023-04-03T13:59:53;2.40;;;1.20;;
71856;SDS011;63344;46.980;28.882;2023-04-03T14:02:31;2.42;;;1.13;;
71856;SDS011;63344;46.980;28.882;2023-04-03T14:05:00;1.70;;;0.90;;
71856;SDS011;63344;46.980;28.882;2023-04-03T14:07:30;2.55;;;1.70;;
71856;SDS011;63344;46.980;28.882;2023-04-03T14:10:03;3.05;;;2.08;;
71856;SDS011;63344;46.980;28.882;2023-04-03T14:12:32;3.08;;;1.90;;
71856;SDS011;63344;46.980;28.882;2023-04-03T14:15:04;2.60;;;1.48;;
71856;SDS011;63344;46.980;28.882;2023-04-03T14:17:39;4.47;;;2.00;;
71856;SDS011;63344;46.980;28.882;2023-04-03T14:20:10;3.13;;;2.28;;
71856;SDS011;63344;46.980;28.882;2023-04-03T14:25:11;3.78;;;1.80;;
71856;SDS011;63344;46.980;28.882;2023-04-03T14:27:41;2.85;;;1.65;;
71856;SDS011;63344;46.980;28.882;2023-04-03T14:30:18;2.25;;;1.88;;
71856;SDS011;63344;46.980;28.882;2023-04-03T14:32:51;3.47;;;1.70;;
71856;SDS011;63344;46.980;28.882;2023-04-03T14:35:19;3.65;;;2.40;;
71856;SDS011;63344;46.980;28.882;2023-04-03T14:37:47;4.68;;;2.50;;
71856;SDS011;63344;46.980;28.882;2023-04-03T14:40:17;6.45;;;2.30;;
71856;SDS011;63344;46.980;28.882;2023-04-03T14:42:50;4.65;;;1.75;;
71856;SDS011;63344;46.980;28.882;2023-04-03T14:45:22;3.67;;;2.20;;
71856;SDS011;63344;46.980;28.882;2023-04-03T14:47:52;2.47;;;1.92;;
71856;SDS011;63344;46.980;28.882;2023-04-03T14:50:22;4.43;;;2.55;;
71856;SDS011;63344;46.980;28.882;2023-04-03T14:52:53;2.58;;;1.50;;
71856;SDS011;63344;46.980;28.882;2023-04-03T14:55:23;4.32;;;2.55;;
71856;SDS011;63344;46.980;28.882;2023-04-03T14:57:52;5.28;;;2.63;;
71856;SDS011;63344;46.980;28.882;2023-04-03T15:00:23;3.55;;;2.45;;
71856;SDS011;63344;46.980;28.882;2023-04-03T15:02:50;2.78;;;1.38;;
71856;SDS011;63344;46.980;28.882;2023-04-03T15:05:18;3.22;;;2.30;;
71856;SDS011;63344;46.980;28.882;2023-04-03T15:07:55;6.10;;;2.25;;
71856;SDS011;63344;46.980;28.882;2023-04-03T15:10:26;3.58;;;1.88;;
71856;SDS011;63344;46.980;28.882;2023-04-03T15:12:55;6.50;;;2.22;;
71856;SDS011;63344;46.980;28.882;2023-04-03T15:15:23;4.13;;;1.70;;
71856;SDS011;63344;46.980;28.882;2023-04-03T15:17:52;4.13;;;2.40;;
71856;SDS011;63344;46.980;28.882;2023-04-03T15:20:23;3.10;;;1.70;;
71856;SDS011;63344;46.980;28.882;2023-04-03T15:22:53;3.65;;;2.17;;
71856;SDS011;63344;46.980;28.882;2023-04-03T15:25:23;2.63;;;1.70;;
71856;SDS011;63344;46.980;28.882;2023-04-03T15:27:56;3.85;;;2.15;;
71856;SDS011;63344;46.980;28.882;2023-04-03T15:30:27;2.88;;;1.85;;
71856;SDS011;63344;46.980;28.882;2023-04-03T15:33:00;4.13;;;1.67;;
71856;SDS011;63344;46.980;28.882;2023-04-03T15:35:27;5.45;;;2.90;;
71856;SDS011;63344;46.980;28.882;2023-04-03T15:37:55;4.35;;;2.35;;
71856;SDS011;63344;46.980;28.882;2023-04-03T15:40:22;6.00;;;2.80;;
71856;SDS011;63344;46.980;28.882;2023-04-03T15:42:49;5.22;;;2.53;;
71856;SDS011;63344;46.980;28.882;2023-04-03T15:45:20;5.80;;;2.55;;
71856;SDS011;63344;46.980;28.882;2023-04-03T15:47:48;4.82;;;2.42;;
71856;SDS011;63344;46.980;28.882;2023-04-03T15:50:16;6.00;;;3.05;;
71856;SDS011;63344;46.980;28.882;2023-04-03T15:52:44;5.90;;;2.40;;
71856;SDS011;63344;46.980;28.882;2023-04-03T15:55:11;5.05;;;2.63;;
71856;SDS011;63344;46.980;28.882;2023-04-03T15:57:39;5.80;;;2.05;;
71856;SDS011;63344;46.980;28.882;2023-04-03T16:00:13;2.47;;;1.70;;
71856;SDS011;63344;46.980;28.882;2023-04-03T16:02:59;2.95;;;1.45;;
71856;SDS011;63344;46.980;28.882;2023-04-03T16:05:38;4.30;;;2.40;;
71856;SDS011;63344;46.980;28.882;2023-04-03T16:08:07;3.25;;;1.58;;
71856;SDS011;63344;46.980;28.882;2023-04-03T16:10:37;3.42;;;1.92;;
71856;SDS011;63344;46.980;28.882;2023-04-03T16:13:07;3.47;;;1.85;;
71856;SDS011;63344;46.980;28.882;2023-04-03T16:15:48;2.50;;;1.60;;
71856;SDS011;63344;46.980;28.882;2023-04-03T16:18:16;3.67;;;1.67;;
71856;SDS011;63344;46.980;28.882;2023-04-03T16:20:45;3.75;;;2.28;;
71856;SDS011;63344;46.980;28.882;2023-04-03T16:23:14;4.05;;;2.28;;
71856;SDS011;63344;46.980;28.882;2023-04-03T16:25:44;3.67;;;2.17;;
71856;SDS011;63344;46.980;28.882;2023-04-03T16:28:14;3.30;;;2.10;;
71856;SDS011;63344;46.980;28.882;2023-04-03T16:30:45;3.20;;;1.83;;
71856;SDS011;63344;46.980;28.882;2023-04-03T16:33:27;5.03;;;2.20;;
71856;SDS011;63344;46.980;28.882;2023-04-03T16:35:55;4.43;;;2.05;;
71856;SDS011;63344;46.980;28.882;2023-04-03T16:38:46;5.75;;;2.40;;
71856;SDS011;63344;46.980;28.882;2023-04-03T16:41:14;5.20;;;2.85;;
71856;SDS011;63344;46.980;28.882;2023-04-03T16:43:42;4.47;;;2.00;;
71856;SDS011;63344;46.980;28.882;2023-04-03T16:46:09;4.43;;;2.33;;
71856;SDS011;63344;46.980;28.882;2023-04-03T16:48:38;6.40;;;2.90;;
71856;SDS011;63344;46.980;28.882;2023-04-03T16:51:06;6.50;;;1.92;;
71856;SDS011;63344;46.980;28.882;2023-04-03T16:53:34;5.97;;;2.80;;
71856;SDS011;63344;46.980;28.882;2023-04-03T16:56:03;7.25;;;3.17;;
71856;SDS011;63344;46.980;28.882;2023-04-03T16:58:31;6.25;;;2.92;;
71856;SDS011;63344;46.980;28.882;2023-04-03T17:00:58;5.85;;;3.05;;
71856;SDS011;63344;46.980;28.882;2023-04-03T17:03:34;7.05;;;3.13;;
71856;SDS011;63344;46.980;28.882;2023-04-03T17:06:03;5.93;;;2.90;;
71856;SDS011;63344;46.980;28.882;2023-04-03T17:08:32;6.30;;;3.05;;
71856;SDS011;63344;46.980;28.882;2023-04-03T17:11:00;5.03;;;2.90;;
71856;SDS011;63344;46.980;28.882;2023-04-03T17:13:28;6.60;;;3.38;;
71856;SDS011;63344;46.980;28.882;2023-04-03T17:15:59;4.88;;;3.05;;
71856;SDS011;63344;46.980;28.882;2023-04-03T17:18:31;8.85;;;3.08;;
71856;SDS011;63344;46.980;28.882;2023-04-03T17:21:01;4.55;;;2.83;;
71856;SDS011;63344;46.980;28.882;2023-04-03T17:23:33;4.55;;;2.58;;
71856;SDS011;63344;46.980;28.882;2023-04-03T17:26:03;5.05;;;2.90;;